Olbia / Costa Smeralda Airport LIEO

Flugplatz Daten

Name: Olbia / Costa Smeralda Airport

Ident: LIEO

Lat: 40,89870071

Long: 9,517629623

Platzhöhe: 37 ft

IataCode: OLB

City: Olbia

Metar

2021/08/05 13:20
LIEO 051320Z 28019KT 9999 FEW040 31/12 Q1013

Taf

2021/08/05 12:00
TAF LIEO 051100Z 0512/0612 28018G30KT 9999 SCT040
Gewünschte Webcam nicht vorhanden? Dann fügen Sie eine hinzu. Sie wird dann so schnell wie möglich freigeschaltet
Url: Title: